This is the latest recevied weather packets stored in our database for station/object HF6UWU. If no packets are shown the sender has not sent any weather packets the latest 10 day(s).
| Time | Temp. | Humidity | Pressure | Rain* | Wind** | Luminosity | Snow |
|---|---|---|---|---|---|---|---|
| 1788538475 | 25.56° C | 57% | 996.6 hPa | 0 mm | - | 40 W/m² | - |
| 1788537866 | 25.56° C | 57% | 996.6 hPa | 0 mm | - | 76 W/m² | - |
| 1788537736 | 25.56° C | 58% | 996.6 hPa | 0 mm | - | 69 W/m² | - |
| 1788537136 | 25° C | 59% | 996.7 hPa | 0 mm | - | 50 W/m² | - |
| 1788536527 | 25° C | 59% | 996.7 hPa | 0 mm | - | 73 W/m² | - |
| 1788535292 | 25° C | 60% | 997 hPa | 0 mm | - | 115 W/m² | - |
| 1788534676 | 25° C | 60% | 997.1 hPa | 0 mm | - | 101 W/m² | - |
| 1788532836 | 25° C | 59% | 997.6 hPa | 0 mm | - | 149 W/m² | - |
| 1788532226 | 25° C | 58% | 997.6 hPa | 0 mm | - | 166 W/m² | - |
| 1788530986 | 25° C | 57% | 998 hPa | 0 mm | - | 236 W/m² | - |
| 1788529776 | 25° C | 60% | 998.4 hPa | 0 mm | - | 242 W/m² | - |
| 1788528538 | 24.44° C | 60% | 998.8 hPa | 0 mm | - | 198 W/m² | - |
| 1788527317 | 24.44° C | 61% | 999.1 hPa | 0 mm | - | 230 W/m² | - |
| 1788526088 | 23.89° C | 61% | 999.4 hPa | 0 mm | - | 329 W/m² | - |
| 1788525486 | 23.89° C | 63% | 999.7 hPa | 0 mm | - | 181 W/m² | - |
| 1788524876 | 23.89° C | 63% | 999.8 hPa | 0 mm | - | 294 W/m² | - |
| 1788523050 | 22.78° C | 66% | 1000.3 hPa | 0 mm | - | 138 W/m² | - |
| 1788521215 | 22.22° C | 67% | 1000.8 hPa | 0 mm | - | 203 W/m² | - |
| 1788520613 | 22.78° C | 67% | 1001 hPa | 0 mm | - | 98 W/m² | - |
| 1788520002 | 22.78° C | 66% | 1001.1 hPa | 0 mm | - | 322 W/m² | - |
| 1788518175 | 21.67° C | 68% | 1001.6 hPa | 0 mm | - | 301 W/m² | - |
| 1788517574 | 21.67° C | 69% | 1001.8 hPa | 0 mm | - | 174 W/m² | - |
| 1788516336 | 21.67° C | 65% | 1002 hPa | 0 mm | - | 140 W/m² | - |
| 1788513884 | 22.22° C | 63% | 1002.3 hPa | 0 mm | - | 281 W/m² | - |
| 1788510825 | 21.11° C | 70% | 1003.1 hPa | 0 mm | - | 282 W/m² | - |
* Rain latest hour (hover to see other rain measurements)
** Current wind speed in m/s (hover to see current wind gust speed)